Time;durP1;ratioP1;P1;durP2;ratioP2;P2;SDS_P1;SDS_P2;PMS_P1;PMS_P2;Temp;Humidity;BMP_temperature;BMP_pressure;BME280_temperature;BME280_humidity;BME280_pressure;Samples;Min_cycle;Max_cycle;Signal;HPM_P1;HPM_P2
2022/01/02 00:01:36;;;;;;;;;;;2.60;99.90;;;;;;5064670;28;19916;-80
2022/01/02 00:04:02;;;;;;;;;;;2.60;99.90;;;;;;5048804;28;19912;-81
2022/01/02 00:06:30;;;;;;;;;;;2.60;99.90;;;;;;5044306;28;19933;-82
2022/01/02 00:09:01;;;;;;;;;;;2.60;99.90;;;;;;5043518;28;19916;-83
2022/01/02 00:11:27;;;;;;;;;;;2.60;99.90;;;;;;5025971;28;19909;-83
2022/01/02 00:13:54;;;;;;;;;;;2.50;99.90;;;;;;5042886;28;19920;-83
2022/01/02 00:16:20;;;;;;;;;;;2.50;99.90;;;;;;5042680;28;19948;-82
2022/01/02 00:18:52;;;;;;;;;;;2.40;99.90;;;;;;5043542;28;19917;-83
2022/01/02 00:21:18;;;;;;;;;;;2.50;99.90;;;;;;5043866;28;20018;-82
2022/01/02 00:24:00;;;;;;;;;;;2.40;99.90;;;;;;5024325;28;19917;-82
2022/01/02 00:26:35;;;;;;;;;;;2.40;99.90;;;;;;5042219;28;19995;-82
2022/01/02 00:29:05;;;;;;;;;;;2.40;99.90;;;;;;5026300;28;20398;-82
2022/01/02 00:31:31;;;;;;;;;;;2.40;99.90;;;;;;5022185;28;19913;-83
2022/01/02 00:33:57;;;;;;;;;;;2.40;99.90;;;;;;5027283;28;19912;-82
2022/01/02 00:36:23;;;;;;;;;;;2.40;99.90;;;;;;5024934;28;20368;-83
2022/01/02 00:38:48;;;;;;;;;;;2.30;99.90;;;;;;5044918;28;20295;-84
2022/01/02 00:41:17;;;;;;;;;;;2.40;99.90;;;;;;5023830;28;19917;-82
2022/01/02 00:43:47;;;;;;;;;;;2.50;99.90;;;;;;5026210;28;19928;-80
2022/01/02 00:46:13;;;;;;;;;;;2.70;99.90;;;;;;5023485;28;19921;-82
2022/01/02 00:48:40;;;;;;;;;;;2.70;99.90;;;;;;5044360;28;20127;-82
2022/01/02 00:51:12;;;;;;;;;;;2.70;99.90;;;;;;5040223;28;19913;-81
2022/01/02 00:53:39;;;;;;;;;;;2.70;99.90;;;;;;5024481;28;19919;-83
2022/01/02 00:56:04;;;;;;;;;;;2.70;99.90;;;;;;5043294;28;19940;-82
2022/01/02 00:58:34;;;;;;;;;;;2.70;99.90;;;;;;5041504;28;19913;-82
2022/01/02 01:00:59;;;;;;;;;;;2.70;99.90;;;;;;5045202;28;19927;-81
2022/01/02 01:03:32;;;;;;;;;;;2.70;99.90;;;;;;5025890;28;19917;-80
2022/01/02 01:06:01;;;;;;;;;;;2.60;99.90;;;;;;5043573;28;19923;-81
2022/01/02 01:08:29;;;;;;;;;;;2.70;99.90;;;;;;5025914;28;19912;-80
2022/01/02 01:10:54;;;;;;;;;;;2.70;99.90;;;;;;5023472;28;20011;-81
2022/01/02 01:13:20;;;;;;;;;;;2.60;99.90;;;;;;5023740;28;20019;-80
2022/01/02 01:15:46;;;;;;;;;;;2.60;99.90;;;;;;5042784;28;19951;-80
2022/01/02 01:18:11;;;;;;;;;;;2.60;99.90;;;;;;5039862;28;20011;-82
2022/01/02 01:20:41;;;;;;;;;;;2.70;99.90;;;;;;5025233;28;19943;-81
2022/01/02 01:23:06;;;;;;;;;;;2.70;99.90;;;;;;5022437;28;19913;-80
2022/01/02 01:25:32;;;;;;;;;;;2.70;99.90;;;;;;5025321;28;19934;-82
2022/01/02 01:27:58;;;;;;;;;;;2.70;99.90;;;;;;5022792;28;19961;-80
2022/01/02 01:30:25;;;;;;;;;;;2.60;99.90;;;;;;5025103;28;19923;-80
2022/01/02 01:32:52;;;;;;;;;;;2.70;99.90;;;;;;5039274;28;20428;-82
2022/01/02 01:35:19;;;;;;;;;;;2.70;99.90;;;;;;5024090;28;19916;-81
2022/01/02 01:37:44;;;;;;;;;;;2.80;99.90;;;;;;5024171;28;19935;-81
2022/01/02 01:40:11;;;;;;;;;;;2.70;99.90;;;;;;5039803;28;19916;-79
2022/01/02 01:42:41;;;;;;;;;;;2.60;99.90;;;;;;5024494;28;19917;-80
2022/01/02 01:47:47;;;;;;;;;;;2.70;99.90;;;;;;5040213;28;19921;-77
2022/01/02 01:50:13;;;;;;;;;;;2.60;99.90;;;;;;5042615;28;20006;-79
2022/01/02 01:52:38;;;;;;;;;;;2.60;99.90;;;;;;5020987;28;20122;-78
2022/01/02 01:55:04;;;;;;;;;;;2.80;99.90;;;;;;5042712;28;20029;-82
2022/01/02 01:57:31;;;;;;;;;;;2.90;99.90;;;;;;5039809;28;19917;-81
2022/01/02 01:59:56;;;;;;;;;;;3.00;99.90;;;;;;5023662;28;19924;-82
2022/01/02 02:02:22;;;;;;;;;;;2.90;99.90;;;;;;5041458;28;19920;-77
2022/01/02 02:04:48;;;;;;;;;;;2.80;99.90;;;;;;5041585;28;19917;-82
2022/01/02 02:07:15;;;;;;;;;;;2.70;99.90;;;;;;5041002;28;20341;-83
2022/01/02 02:12:43;;;;;;;;;;;2.60;99.90;;;;;;4965899;28;19949;-80
2022/01/02 02:15:09;;;;;;;;;;;2.70;99.90;;;;;;5012871;28;20401;-80
2022/01/02 02:17:35;;;;;;;;;;;2.70;99.90;;;;;;5021322;28;19913;-82
2022/01/02 02:20:14;;;;;;;;;;;2.80;99.90;;;;;;5041916;28;20282;-80
2022/01/02 02:22:41;;;;;;;;;;;2.80;99.90;;;;;;5026853;28;19994;-80
2022/01/02 02:25:07;;;;;;;;;;;3.00;99.90;;;;;;5020770;28;20000;-83
2022/01/02 02:27:33;;;;;;;;;;;3.00;99.90;;;;;;5039341;28;20003;-81
2022/01/02 02:29:58;;;;;;;;;;;3.00;99.90;;;;;;5040549;28;19913;-80
2022/01/02 02:32:24;;;;;;;;;;;3.10;99.90;;;;;;5041951;28;19936;-79
2022/01/02 02:34:50;;;;;;;;;;;3.10;99.90;;;;;;5023322;28;19917;-80
2022/01/02 02:37:15;;;;;;;;;;;3.20;99.90;;;;;;5023061;28;20433;-80
2022/01/02 02:39:41;;;;;;;;;;;3.30;99.90;;;;;;5038977;28;19917;-82
2022/01/02 02:42:14;;;;;;;;;;;3.20;99.90;;;;;;5028309;28;19917;-81
2022/01/02 02:44:40;;;;;;;;;;;3.20;99.90;;;;;;5042638;28;19917;-81
2022/01/02 02:49:50;;;;;;;;;;;3.20;99.90;;;;;;5035465;28;19923;-81
2022/01/02 02:52:32;;;;;;;;;;;3.20;99.90;;;;;;5022639;28;19909;-80
2022/01/02 02:54:57;;;;;;;;;;;3.00;99.90;;;;;;5009744;28;20115;-80
2022/01/02 02:57:23;;;;;;;;;;;2.90;99.90;;;;;;5009644;28;19952;-80
2022/01/02 02:59:48;;;;;;;;;;;3.00;99.90;;;;;;5005557;28;19936;-80
2022/01/02 03:02:14;;;;;;;;;;;3.10;99.90;;;;;;4974096;28;20333;-79
2022/01/02 03:04:39;;;;;;;;;;;3.10;99.90;;;;;;4990251;28;20385;-78
2022/01/02 03:07:05;;;;;;;;;;;3.00;99.90;;;;;;4991128;28;20413;-79
2022/01/02 03:11:59;;;;;;;;;;;3.00;99.90;;;;;;5026019;28;19921;-81
2022/01/02 03:14:25;;;;;;;;;;;3.00;99.90;;;;;;5008792;28;19913;-79
2022/01/02 03:16:50;;;;;;;;;;;3.00;99.90;;;;;;5000308;28;19914;-79
2022/01/02 03:19:16;;;;;;;;;;;3.00;99.90;;;;;;5009714;28;19913;-80
2022/01/02 03:21:41;;;;;;;;;;;3.10;99.90;;;;;;5011249;28;19968;-80
2022/01/02 03:24:07;;;;;;;;;;;3.20;99.90;;;;;;4999940;28;19918;-80
2022/01/02 03:26:32;;;;;;;;;;;3.20;99.90;;;;;;4994888;28;19914;-82
2022/01/02 03:28:58;;;;;;;;;;;3.20;99.90;;;;;;4995843;28;19917;-82
2022/01/02 03:31:23;;;;;;;;;;;3.20;99.90;;;;;;5000096;28;19979;-82
2022/01/02 03:33:49;;;;;;;;;;;3.20;99.90;;;;;;4997944;28;19921;-81
2022/01/02 03:36:14;;;;;;;;;;;3.30;99.90;;;;;;5002082;28;20293;-81
2022/01/02 03:38:40;;;;;;;;;;;3.30;99.90;;;;;;5003862;28;19921;-79
2022/01/02 03:41:05;;;;;;;;;;;3.30;99.90;;;;;;4997604;28;20373;-80
2022/01/02 03:43:31;;;;;;;;;;;3.30;99.90;;;;;;5004065;28;19913;-80
2022/01/02 03:45:57;;;;;;;;;;;3.30;99.90;;;;;;5003748;28;19915;-80
2022/01/02 03:48:23;;;;;;;;;;;3.30;99.90;;;;;;5003722;28;19996;-80
2022/01/02 03:50:48;;;;;;;;;;;3.20;99.90;;;;;;5003588;28;19924;-81
2022/01/02 03:53:14;;;;;;;;;;;3.10;99.90;;;;;;5007541;28;19957;-82
2022/01/02 03:55:39;;;;;;;;;;;3.00;99.90;;;;;;5024173;28;19959;-82
2022/01/02 03:58:05;;;;;;;;;;;3.10;99.90;;;;;;5021976;28;19909;-81
2022/01/02 04:00:31;;;;;;;;;;;3.00;99.90;;;;;;5023914;28;20389;-82
2022/01/02 04:02:56;;;;;;;;;;;3.10;99.90;;;;;;5057645;28;20351;-80
2022/01/02 04:05:22;;;;;;;;;;;3.00;99.90;;;;;;5027767;28;19924;-79
2022/01/02 04:07:48;;;;;;;;;;;3.10;99.90;;;;;;5020714;28;19921;-82
2022/01/02 04:10:14;;;;;;;;;;;3.10;99.90;;;;;;5023464;28;19939;-80
2022/01/02 04:12:40;;;;;;;;;;;3.10;99.90;;;;;;5023426;28;19913;-81
2022/01/02 04:15:08;;;;;;;;;;;3.10;99.90;;;;;;5024896;28;19913;-81
2022/01/02 04:17:34;;;;;;;;;;;3.00;99.90;;;;;;5021922;28;19913;-80
2022/01/02 04:20:00;;;;;;;;;;;2.90;99.90;;;;;;5024000;28;19973;-82
2022/01/02 04:22:25;;;;;;;;;;;2.90;99.90;;;;;;5055606;28;19912;-81
2022/01/02 04:24:51;;;;;;;;;;;2.70;99.90;;;;;;5023613;28;20357;-80
2022/01/02 04:27:20;;;;;;;;;;;2.70;99.90;;;;;;5024113;28;19928;-81
2022/01/02 04:29:46;;;;;;;;;;;2.50;99.90;;;;;;5020588;28;19917;-80
2022/01/02 04:32:12;;;;;;;;;;;2.60;99.90;;;;;;5039026;28;19913;-79
2022/01/02 04:34:38;;;;;;;;;;;2.50;99.90;;;;;;5021928;28;19909;-81
2022/01/02 04:37:04;;;;;;;;;;;2.50;99.90;;;;;;5019966;28;20336;-80
2022/01/02 04:39:30;;;;;;;;;;;2.50;99.90;;;;;;5028101;28;20394;-81
2022/01/02 04:41:56;;;;;;;;;;;2.40;99.90;;;;;;5022581;28;19988;-79
2022/01/02 04:44:21;;;;;;;;;;;2.50;99.90;;;;;;5036545;28;20650;-82
2022/01/02 04:46:47;;;;;;;;;;;2.40;99.90;;;;;;5022211;28;20251;-82
2022/01/02 04:49:12;;;;;;;;;;;2.40;99.90;;;;;;5023118;28;20238;-81
2022/01/02 04:51:38;;;;;;;;;;;2.40;99.90;;;;;;5020798;28;19917;-78
2022/01/02 04:54:04;;;;;;;;;;;2.30;99.90;;;;;;5038674;28;20070;-80
2022/01/02 04:56:29;;;;;;;;;;;2.40;99.90;;;;;;5043859;28;19921;-80
2022/01/02 04:58:55;;;;;;;;;;;2.40;99.90;;;;;;5045000;28;19908;-82
2022/01/02 05:01:20;;;;;;;;;;;2.40;99.90;;;;;;5024652;28;20051;-80
2022/01/02 05:03:46;;;;;;;;;;;2.30;99.90;;;;;;5026369;28;19923;-82
2022/01/02 05:06:11;;;;;;;;;;;2.30;99.90;;;;;;5040213;28;19917;-80
2022/01/02 05:08:37;;;;;;;;;;;2.30;99.90;;;;;;5042896;28;19913;-81
2022/01/02 05:11:03;;;;;;;;;;;2.30;99.90;;;;;;5042630;28;19912;-82
2022/01/02 05:13:28;;;;;;;;;;;2.30;99.90;;;;;;5007907;28;20018;-81
2022/01/02 05:15:54;;;;;;;;;;;2.30;99.90;;;;;;5041446;28;19927;-80
2022/01/02 05:18:20;;;;;;;;;;;2.40;99.90;;;;;;5024521;28;19920;-80
2022/01/02 05:20:46;;;;;;;;;;;2.30;99.90;;;;;;5040299;28;19909;-79
2022/01/02 05:23:12;;;;;;;;;;;2.30;99.90;;;;;;5025825;28;20425;-81
2022/01/02 05:25:38;;;;;;;;;;;2.40;99.90;;;;;;5040123;28;20020;-82
2022/01/02 05:28:03;;;;;;;;;;;2.40;99.90;;;;;;5024416;28;20043;-82
2022/01/02 05:30:29;;;;;;;;;;;2.40;99.90;;;;;;5022651;28;19917;-80
2022/01/02 05:32:57;;;;;;;;;;;2.30;99.90;;;;;;5025034;28;19916;-81
2022/01/02 05:35:23;;;;;;;;;;;2.40;99.90;;;;;;5025532;28;20342;-81
2022/01/02 05:37:49;;;;;;;;;;;2.50;99.90;;;;;;5026002;28;19912;-81
2022/01/02 05:40:14;;;;;;;;;;;2.60;99.90;;;;;;5005282;28;20116;-81
2022/01/02 05:42:40;;;;;;;;;;;2.70;99.90;;;;;;5044933;28;19921;-83
2022/01/02 05:45:05;;;;;;;;;;;2.70;99.90;;;;;;5039993;28;19916;-81
2022/01/02 05:47:31;;;;;;;;;;;2.80;99.90;;;;;;5023736;28;19917;-83
2022/01/02 05:49:56;;;;;;;;;;;2.90;99.90;;;;;;5041490;28;19916;-79
2022/01/02 05:52:22;;;;;;;;;;;2.90;99.90;;;;;;5041878;28;19940;-81
2022/01/02 05:54:47;;;;;;;;;;;2.90;99.90;;;;;;5042414;28;19925;-84
2022/01/02 05:57:13;;;;;;;;;;;2.90;99.90;;;;;;5043470;28;20443;-84
2022/01/02 05:59:39;;;;;;;;;;;3.00;99.90;;;;;;5039685;28;19920;-81
2022/01/02 06:02:05;;;;;;;;;;;3.00;99.90;;;;;;5041279;28;19917;-80
2022/01/02 06:04:31;;;;;;;;;;;2.90;99.90;;;;;;5042538;28;20384;-82
2022/01/02 06:06:56;;;;;;;;;;;2.80;99.90;;;;;;5041141;28;19920;-82
2022/01/02 06:09:22;;;;;;;;;;;2.70;99.90;;;;;;5024639;28;20394;-81
2022/01/02 06:11:47;;;;;;;;;;;2.60;99.90;;;;;;5025504;28;19916;-81
2022/01/02 06:14:13;;;;;;;;;;;2.50;99.90;;;;;;5024936;28;19924;-83
2022/01/02 06:16:38;;;;;;;;;;;2.40;99.90;;;;;;5024448;28;19927;-80
2022/01/02 06:19:04;;;;;;;;;;;2.40;99.90;;;;;;5020708;28;19920;-82
2022/01/02 06:21:29;;;;;;;;;;;2.40;99.90;;;;;;5022385;28;20000;-81
2022/01/02 06:23:55;;;;;;;;;;;2.40;99.90;;;;;;5041160;28;20008;-83
2022/01/02 06:26:20;;;;;;;;;;;2.30;99.90;;;;;;5041642;28;19913;-79
2022/01/02 06:28:47;;;;;;;;;;;2.20;99.90;;;;;;5039157;28;19917;-82
2022/01/02 06:31:13;;;;;;;;;;;2.20;99.90;;;;;;5043896;28;19916;-81
2022/01/02 06:33:38;;;;;;;;;;;2.20;99.90;;;;;;5039758;28;19919;-81
2022/01/02 06:36:04;;;;;;;;;;;2.20;99.90;;;;;;5024237;28;19951;-81
2022/01/02 06:38:29;;;;;;;;;;;2.20;99.90;;;;;;5044033;28;20319;-80
2022/01/02 06:40:55;;;;;;;;;;;2.30;99.90;;;;;;5021419;28;19919;-81
2022/01/02 06:43:20;;;;;;;;;;;2.20;99.90;;;;;;5040910;28;20391;-79
2022/01/02 06:45:46;;;;;;;;;;;2.20;99.90;;;;;;5042871;28;20364;-80
2022/01/02 06:48:12;;;;;;;;;;;2.20;99.90;;;;;;5023110;28;20008;-84
2022/01/02 06:50:40;;;;;;;;;;;2.20;99.90;;;;;;5025131;28;20012;-81
2022/01/02 06:53:06;;;;;;;;;;;2.20;99.90;;;;;;5043144;28;19917;-80
2022/01/02 06:55:32;;;;;;;;;;;2.20;99.90;;;;;;5023664;28;19916;-82
2022/01/02 06:57:57;;;;;;;;;;;2.30;99.90;;;;;;5027972;28;20347;-83
2022/01/02 07:00:23;;;;;;;;;;;2.30;99.90;;;;;;5026904;28;19912;-82
2022/01/02 07:02:49;;;;;;;;;;;2.30;99.90;;;;;;5028976;28;19909;-82
2022/01/02 07:05:14;;;;;;;;;;;2.40;99.90;;;;;;5043680;28;19958;-83
2022/01/02 07:07:41;;;;;;;;;;;2.30;99.90;;;;;;5046067;28;20008;-81
2022/01/02 07:10:07;;;;;;;;;;;2.20;99.90;;;;;;5040596;28;20008;-81
2022/01/02 07:12:33;;;;;;;;;;;2.20;99.90;;;;;;5043880;28;19909;-81
2022/01/02 07:14:59;;;;;;;;;;;2.30;99.90;;;;;;5027182;28;19917;-81
2022/01/02 07:17:24;;;;;;;;;;;2.30;99.90;;;;;;5024028;28;20007;-84
2022/01/02 07:19:50;;;;;;;;;;;2.30;99.90;;;;;;5029016;28;19942;-85
2022/01/02 07:22:15;;;;;;;;;;;2.50;99.90;;;;;;5044965;28;19921;-83
2022/01/02 07:24:45;;;;;;;;;;;2.40;99.90;;;;;;5025949;28;20044;-85
2022/01/02 07:27:11;;;;;;;;;;;2.40;99.90;;;;;;5028270;28;20391;-80
2022/01/02 07:29:37;;;;;;;;;;;2.40;99.90;;;;;;5046717;28;20007;-79
2022/01/02 07:32:02;;;;;;;;;;;2.40;99.90;;;;;;5045416;28;20372;-81
2022/01/02 07:34:28;;;;;;;;;;;2.40;99.90;;;;;;5024531;28;19959;-82
2022/01/02 07:36:53;;;;;;;;;;;2.30;99.90;;;;;;5048504;28;20007;-77
2022/01/02 07:39:19;;;;;;;;;;;2.50;99.90;;;;;;5046364;28;19917;-79
2022/01/02 07:41:44;;;;;;;;;;;2.60;99.90;;;;;;5043923;28;19919;-77
2022/01/02 07:44:10;;;;;;;;;;;2.70;99.90;;;;;;5029261;28;19916;-82
2022/01/02 07:46:35;;;;;;;;;;;2.70;99.90;;;;;;5033763;28;19921;-83
2022/01/02 07:49:01;;;;;;;;;;;2.70;99.90;;;;;;5046676;28;19924;-81
2022/01/02 07:51:26;;;;;;;;;;;2.60;99.90;;;;;;5028642;28;19920;-87
2022/01/02 07:53:52;;;;;;;;;;;2.60;99.90;;;;;;5025082;28;19923;-82
2022/01/02 07:56:18;;;;;;;;;;;2.70;99.90;;;;;;5024459;28;20250;-82
2022/01/02 07:58:43;;;;;;;;;;;2.70;99.90;;;;;;5025404;28;20311;-80
2022/01/02 08:01:09;;;;;;;;;;;2.70;99.90;;;;;;5020853;28;20160;-79
2022/01/02 08:03:35;;;;;;;;;;;2.80;99.90;;;;;;5024030;28;19924;-79
2022/01/02 08:06:01;;;;;;;;;;;3.00;99.90;;;;;;5023396;28;19982;-82
2022/01/02 08:08:26;;;;;;;;;;;3.10;99.90;;;;;;5022903;28;19970;-80
2022/01/02 08:10:52;;;;;;;;;;;3.10;99.90;;;;;;5022746;28;19932;-78
2022/01/02 08:13:17;;;;;;;;;;;3.20;99.90;;;;;;5023514;28;19917;-80
2022/01/02 08:15:43;;;;;;;;;;;3.20;99.90;;;;;;5020327;28;20384;-78
2022/01/02 08:18:13;;;;;;;;;;;3.20;99.90;;;;;;5024172;28;19921;-77
2022/01/02 08:20:39;;;;;;;;;;;3.20;99.90;;;;;;5020691;28;20011;-80
2022/01/02 08:23:05;;;;;;;;;;;3.30;99.90;;;;;;5023471;28;20423;-79
2022/01/02 08:25:30;;;;;;;;;;;3.40;99.90;;;;;;5021774;28;20014;-78
2022/01/02 08:27:56;;;;;;;;;;;3.50;99.90;;;;;;5003654;28;19917;-78
2022/01/02 08:30:21;;;;;;;;;;;3.60;99.90;;;;;;5022045;28;19916;-80
2022/01/02 08:32:47;;;;;;;;;;;3.70;99.90;;;;;;5021296;28;20278;-80
2022/01/02 08:35:12;;;;;;;;;;;3.80;99.90;;;;;;5056346;28;19912;-82
2022/01/02 08:37:39;;;;;;;;;;;3.80;99.90;;;;;;5022930;28;19913;-80
2022/01/02 08:40:05;;;;;;;;;;;3.90;99.90;;;;;;5022133;28;19920;-81
2022/01/02 08:42:30;;;;;;;;;;;4.00;99.90;;;;;;5021508;28;19913;-79
2022/01/02 08:44:56;;;;;;;;;;;4.20;99.90;;;;;;5023613;28;19913;-80
2022/01/02 08:47:21;;;;;;;;;;;4.30;99.90;;;;;;5019868;28;20044;-80
2022/01/02 08:49:47;;;;;;;;;;;4.40;99.90;;;;;;5023250;28;20316;-78
2022/01/02 08:52:13;;;;;;;;;;;4.40;99.90;;;;;;5019122;28;19913;-79
2022/01/02 08:54:39;;;;;;;;;;;4.40;99.90;;;;;;5019692;28;19921;-81
2022/01/02 08:57:04;;;;;;;;;;;4.50;99.90;;;;;;5021814;28;20008;-82
2022/01/02 08:59:30;;;;;;;;;;;4.60;99.90;;;;;;5011539;28;19918;-81
2022/01/02 09:01:56;;;;;;;;;;;4.60;99.90;;;;;;5018552;28;19921;-81
2022/01/02 09:04:21;;;;;;;;;;;4.60;99.90;;;;;;5021285;28;20388;-78
2022/01/02 09:06:47;;;;;;;;;;;4.50;99.90;;;;;;5024443;28;19917;-79
2022/01/02 09:09:13;;;;;;;;;;;4.60;99.90;;;;;;5023528;28;19920;-80
2022/01/02 09:11:38;;;;;;;;;;;4.50;99.90;;;;;;5024605;28;19913;-81
2022/01/02 09:14:04;;;;;;;;;;;4.60;99.90;;;;;;5022630;28;19924;-79
2022/01/02 09:16:30;;;;;;;;;;;4.70;99.90;;;;;;5022028;28;19924;-79
2022/01/02 09:18:56;;;;;;;;;;;4.70;99.90;;;;;;5021659;28;19940;-80
2022/01/02 09:21:21;;;;;;;;;;;4.80;99.90;;;;;;5054935;28;20388;-77
2022/01/02 09:23:47;;;;;;;;;;;4.90;99.90;;;;;;5020474;28;19910;-80
2022/01/02 09:26:13;;;;;;;;;;;4.90;99.90;;;;;;5023595;28;20356;-79
2022/01/02 09:28:39;;;;;;;;;;;4.90;99.90;;;;;;5019538;28;20384;-79
2022/01/02 09:31:04;;;;;;;;;;;5.00;99.90;;;;;;5020335;28;19917;-81
2022/01/02 09:33:30;;;;;;;;;;;5.00;99.90;;;;;;5053731;28;20307;-78
2022/01/02 09:35:55;;;;;;;;;;;5.10;99.90;;;;;;5021027;28;19910;-77
2022/01/02 09:38:21;;;;;;;;;;;5.00;99.90;;;;;;5023215;28;20257;-80
2022/01/02 09:40:47;;;;;;;;;;;5.10;99.90;;;;;;5023471;28;20372;-80
2022/01/02 09:43:12;;;;;;;;;;;5.10;99.90;;;;;;5052022;28;19913;-79
2022/01/02 09:45:41;;;;;;;;;;;5.20;99.90;;;;;;5023519;28;20611;-78
2022/01/02 09:48:07;;;;;;;;;;;5.20;99.90;;;;;;5020428;28;19913;-79
2022/01/02 09:50:35;;;;;;;;;;;5.20;99.90;;;;;;5002186;28;19962;-78
2022/01/02 09:53:00;;;;;;;;;;;5.30;99.90;;;;;;5025854;28;20412;-81
2022/01/02 09:55:26;;;;;;;;;;;5.30;99.90;;;;;;5041887;28;20007;-78
2022/01/02 09:57:53;;;;;;;;;;;5.50;99.90;;;;;;5039800;28;19920;-80
2022/01/02 10:00:20;;;;;;;;;;;5.70;99.90;;;;;;5024508;28;19920;-78
2022/01/02 10:02:56;;;;;;;;;;;5.90;99.90;;;;;;5021566;28;19913;-80
2022/01/02 10:05:24;;;;;;;;;;;6.20;99.90;;;;;;5021445;28;20011;-78
2022/01/02 10:07:50;;;;;;;;;;;6.40;99.90;;;;;;5043766;28;19928;-78
2022/01/02 10:10:16;;;;;;;;;;;6.30;99.90;;;;;;5039200;28;19913;-78
2022/01/02 10:12:41;;;;;;;;;;;6.10;99.90;;;;;;5042314;28;19913;-80
2022/01/02 10:15:11;;;;;;;;;;;6.10;99.90;;;;;;5039999;28;19959;-78
2022/01/02 10:17:49;;;;;;;;;;;6.00;99.90;;;;;;5023708;28;20011;-78
2022/01/02 10:20:15;;;;;;;;;;;5.90;99.90;;;;;;5039336;28;20396;-77
2022/01/02 10:22:59;;;;;;;;;;;5.90;99.90;;;;;;5024351;28;20036;-78
2022/01/02 10:25:37;;;;;;;;;;;5.90;99.90;;;;;;5023873;28;19913;-77
2022/01/02 10:28:17;;;;;;;;;;;6.00;99.90;;;;;;5041793;28;19968;-77
2022/01/02 10:30:46;;;;;;;;;;;6.10;99.90;;;;;;5038853;28;20057;-78
2022/01/02 10:33:12;;;;;;;;;;;6.30;99.90;;;;;;5041915;28;19913;-77
2022/01/02 10:35:37;;;;;;;;;;;6.50;99.90;;;;;;5039969;28;19913;-78
2022/01/02 10:38:04;;;;;;;;;;;6.70;99.90;;;;;;5025050;28;20007;-76
2022/01/02 10:40:30;;;;;;;;;;;6.80;99.90;;;;;;5022656;28;20017;-74
2022/01/02 10:42:56;;;;;;;;;;;6.90;99.90;;;;;;5023396;28;19999;-77
2022/01/02 10:45:31;;;;;;;;;;;7.00;99.90;;;;;;5038948;28;19909;-77
2022/01/02 10:47:57;;;;;;;;;;;7.10;99.90;;;;;;5048021;28;19920;-77
2022/01/02 10:50:22;;;;;;;;;;;7.20;99.90;;;;;;5029277;28;20368;-78
2022/01/02 10:52:48;;;;;;;;;;;7.40;99.90;;;;;;5033290;28;19924;-77
2022/01/02 10:55:14;;;;;;;;;;;7.70;99.90;;;;;;5048911;28;19921;-76
2022/01/02 10:57:42;;;;;;;;;;;8.00;99.90;;;;;;5043495;28;19935;-75
2022/01/02 11:00:08;;;;;;;;;;;8.10;99.90;;;;;;5027130;28;20023;-75
2022/01/02 11:02:34;;;;;;;;;;;8.10;99.40;;;;;;5046971;28;19965;-75
2022/01/02 11:05:04;;;;;;;;;;;8.20;99.40;;;;;;5028183;28;19918;-76
2022/01/02 11:07:40;;;;;;;;;;;8.20;99.90;;;;;;5045692;28;19927;-76
2022/01/02 11:10:06;;;;;;;;;;;8.30;99.90;;;;;;5043810;28;19912;-75
2022/01/02 11:12:32;;;;;;;;;;;8.30;97.90;;;;;;5026345;28;19913;-76
2022/01/02 11:14:58;;;;;;;;;;;8.30;99.90;;;;;;5044962;28;20276;-76
2022/01/02 11:17:24;;;;;;;;;;;8.20;98.20;;;;;;5042641;28;19916;-76
2022/01/02 11:19:49;;;;;;;;;;;8.10;98.80;;;;;;5046072;28;19913;-76
2022/01/02 11:22:34;;;;;;;;;;;8.20;99.10;;;;;;5041741;28;19935;-76
2022/01/02 11:25:09;;;;;;;;;;;8.20;99.40;;;;;;5043699;28;19913;-76
2022/01/02 11:27:47;;;;;;;;;;;8.20;99.90;;;;;;5045861;28;19916;-76
2022/01/02 11:30:31;;;;;;;;;;;8.20;97.90;;;;;;5042232;28;20003;-77
2022/01/02 11:33:01;;;;;;;;;;;8.10;98.10;;;;;;5043278;28;19915;-76
2022/01/02 11:35:30;;;;;;;;;;;8.10;96.80;;;;;;5026819;28;19959;-76
2022/01/02 11:38:01;;;;;;;;;;;8.10;97.30;;;;;;5046236;28;19913;-77
2022/01/02 11:40:45;;;;;;;;;;;8.30;96.80;;;;;;5045300;28;19913;-77
2022/01/02 11:43:31;;;;;;;;;;;8.30;96.10;;;;;;5044651;28;20502;-77
2022/01/02 11:46:13;;;;;;;;;;;8.40;96.90;;;;;;5024199;28;19909;-76
2022/01/02 11:48:39;;;;;;;;;;;8.50;97.40;;;;;;5044296;28;19982;-76
2022/01/02 11:51:04;;;;;;;;;;;8.40;95.00;;;;;;5025463;28;19912;-78
2022/01/02 11:53:34;;;;;;;;;;;8.30;95.60;;;;;;5024939;28;19920;-76
2022/01/02 11:55:59;;;;;;;;;;;8.30;96.20;;;;;;5026041;28;19962;-75
2022/01/02 11:58:37;;;;;;;;;;;8.10;97.10;;;;;;5024132;28;19920;-76
2022/01/02 12:01:03;;;;;;;;;;;8.00;96.60;;;;;;5025187;28;20348;-76
2022/01/02 12:03:40;;;;;;;;;;;7.80;97.70;;;;;;5024520;28;20004;-76
2022/01/02 12:06:33;;;;;;;;;;;7.80;98.60;;;;;;5042923;28;19919;-76
2022/01/02 12:08:59;;;;;;;;;;;7.80;98.60;;;;;;5042174;28;20406;-77
2022/01/02 12:11:31;;;;;;;;;;;7.70;98.10;;;;;;5041948;28;20218;-76
2022/01/02 12:14:03;;;;;;;;;;;7.80;98.80;;;;;;5044227;28;19912;-76
2022/01/02 12:16:35;;;;;;;;;;;7.80;97.60;;;;;;5042590;28;19909;-76
2022/01/02 12:19:02;;;;;;;;;;;7.80;98.00;;;;;;5043654;28;19913;-77
2022/01/02 12:21:28;;;;;;;;;;;7.80;97.20;;;;;;5024397;28;19920;-75
2022/01/02 12:23:54;;;;;;;;;;;7.70;97.90;;;;;;5044817;28;19909;-76
2022/01/02 12:26:21;;;;;;;;;;;7.70;97.60;;;;;;5041168;28;19909;-76
2022/01/02 12:28:57;;;;;;;;;;;7.70;97.10;;;;;;5026961;28;19982;-77
2022/01/02 12:31:30;;;;;;;;;;;7.90;97.50;;;;;;5040643;28;19967;-79
2022/01/02 12:34:06;;;;;;;;;;;7.90;97.50;;;;;;5042181;28;19909;-77
2022/01/02 12:36:31;;;;;;;;;;;7.90;97.50;;;;;;5043269;28;19915;-78
2022/01/02 12:38:58;;;;;;;;;;;8.10;98.00;;;;;;5045107;28;19908;-78
2022/01/02 12:41:28;;;;;;;;;;;8.10;97.80;;;;;;5041350;28;19983;-78
2022/01/02 12:43:55;;;;;;;;;;;8.10;96.00;;;;;;5025995;28;19909;-78
2022/01/02 12:46:39;;;;;;;;;;;8.00;97.60;;;;;;5040660;28;19935;-78
2022/01/02 12:49:05;;;;;;;;;;;7.90;97.30;;;;;;5024604;28;19920;-77
2022/01/02 12:51:34;;;;;;;;;;;7.80;96.50;;;;;;5042884;28;19921;-77
2022/01/02 12:54:00;;;;;;;;;;;7.80;97.20;;;;;;5044388;28;19999;-76
2022/01/02 12:56:38;;;;;;;;;;;7.80;97.90;;;;;;5030455;28;19934;-76
2022/01/02 12:59:15;;;;;;;;;;;7.80;97.20;;;;;;5042565;28;19912;-76
2022/01/02 13:02:07;;;;;;;;;;;8.00;98.40;;;;;;5023080;28;19943;-76
2022/01/02 13:04:37;;;;;;;;;;;8.00;98.70;;;;;;5040776;28;20032;-75
2022/01/02 13:07:12;;;;;;;;;;;8.10;98.50;;;;;;5050190;28;19921;-75
2022/01/02 13:09:40;;;;;;;;;;;8.20;98.40;;;;;;5046117;28;19916;-77
2022/01/02 13:12:12;;;;;;;;;;;8.20;97.10;;;;;;5026972;28;19916;-76
2022/01/02 13:14:39;;;;;;;;;;;8.20;96.90;;;;;;5042308;28;19957;-77
2022/01/02 13:17:07;;;;;;;;;;;8.30;96.30;;;;;;5041995;28;20399;-77
2022/01/02 13:19:35;;;;;;;;;;;8.30;96.30;;;;;;5041909;28;19952;-77
2022/01/02 13:22:00;;;;;;;;;;;8.30;96.50;;;;;;5042316;28;19916;-77
2022/01/02 13:24:27;;;;;;;;;;;8.30;97.00;;;;;;5022927;28;20023;-78
2022/01/02 13:26:53;;;;;;;;;;;8.30;96.80;;;;;;5039581;28;19913;-77
2022/01/02 13:29:20;;;;;;;;;;;8.20;98.20;;;;;;5044030;28;20330;-76
2022/01/02 13:31:45;;;;;;;;;;;8.20;97.10;;;;;;5041986;28;19943;-78
2022/01/02 13:34:20;;;;;;;;;;;8.30;96.50;;;;;;5043249;28;19912;-77
2022/01/02 13:36:59;;;;;;;;;;;8.30;97.10;;;;;;5022118;28;20011;-77
2022/01/02 13:39:40;;;;;;;;;;;8.40;96.70;;;;;;5044083;28;19923;-76
2022/01/02 13:42:06;;;;;;;;;;;8.40;95.80;;;;;;5040044;28;20269;-77
2022/01/02 13:44:35;;;;;;;;;;;8.50;94.70;;;;;;5041278;28;19927;-77
2022/01/02 13:47:01;;;;;;;;;;;8.20;94.50;;;;;;5024031;28;20320;-78
2022/01/02 13:49:40;;;;;;;;;;;8.10;96.30;;;;;;5022538;28;19962;-78
2022/01/02 13:52:06;;;;;;;;;;;8.10;96.00;;;;;;5023327;28;19913;-77
2022/01/02 13:54:31;;;;;;;;;;;8.10;96.90;;;;;;5040962;28;19943;-77
2022/01/02 13:56:58;;;;;;;;;;;8.10;97.50;;;;;;5042629;28;20011;-77
2022/01/02 13:59:24;;;;;;;;;;;8.10;97.10;;;;;;5039699;28;20342;-78
2022/01/02 14:01:49;;;;;;;;;;;8.20;96.30;;;;;;5020992;28;19936;-77
2022/01/02 14:04:16;;;;;;;;;;;8.20;97.30;;;;;;5039424;28;20360;-75
2022/01/02 14:06:42;;;;;;;;;;;8.20;97.00;;;;;;5021667;28;19928;-77
2022/01/02 14:09:18;;;;;;;;;;;8.00;96.50;;;;;;5025447;28;19916;-77
2022/01/02 14:11:46;;;;;;;;;;;8.00;96.50;;;;;;5024274;28;19939;-78
2022/01/02 14:14:20;;;;;;;;;;;8.00;97.00;;;;;;5042931;28;20375;-77
2022/01/02 14:17:01;;;;;;;;;;;8.00;96.00;;;;;;5039903;28;19912;-77
2022/01/02 14:19:28;;;;;;;;;;;8.00;96.30;;;;;;5042119;28;19909;-78
2022/01/02 14:21:53;;;;;;;;;;;8.00;96.10;;;;;;5039380;28;19913;-77
2022/01/02 14:24:19;;;;;;;;;;;8.00;96.90;;;;;;5024752;28;19934;-77
2022/01/02 14:26:46;;;;;;;;;;;8.00;96.00;;;;;;5038942;28;20040;-77
2022/01/02 14:29:11;;;;;;;;;;;8.00;96.50;;;;;;5025220;28;20384;-77
2022/01/02 14:31:37;;;;;;;;;;;8.10;96.00;;;;;;5040305;28;19947;-77
2022/01/02 14:34:02;;;;;;;;;;;8.10;96.00;;;;;;5041173;28;19912;-78
2022/01/02 14:36:28;;;;;;;;;;;8.10;95.10;;;;;;5039454;28;19999;-78
2022/01/02 14:38:54;;;;;;;;;;;8.00;94.60;;;;;;5028365;28;19917;-77
2022/01/02 14:41:20;;;;;;;;;;;8.00;95.70;;;;;;5040757;28;19966;-78
2022/01/02 14:43:46;;;;;;;;;;;7.90;94.70;;;;;;5021394;28;19967;-77